ROMMA est une association bénévole à but non lucratif. Votre soutien est indispensable : ADHERER à ROMMA ou FAIRE un DON

Nice - (06, Alpes-Maritimes)

Côte-d'Azur (190 m)   Longitude: 07° 14' E   Latitude: 43° 43' N Station partenaire n°136
 

Détail journalier du     <<     >>

Température Precipitation Humidité Pression Vent Dir Rafale Dir. rafale Ensol.
Heure (°C) (mm) (%) (hPa) (km/h) (km/h) (min)
01:00 14.709110164N15NNO0
02:00 14.509010163NNE15N0
03:00 14.308910163NNE15NNO0
04:00 14.408810166NO24NO0
05:00 14.608510166NNO24NO0
06:00 14.508510166NNO19NNO0
07:00 13.908610166N21N0
08:00 14.708210175NNO23NNO0
09:00 14.508310185NNE21NNO10
10:00 15.208210186N24NNO0
11:00 16.307810189NO24NO0
12:00 18.807210186NO21NO20
13:00 20.007210184N16NNO40
14:00 20.107310193SE13SSE40
15:00 21.306810182S8SSO60
16:00 20.807310184S13S60
17:00 20.306710194SSO11OSO60
18:00 18.9075101906SSE0
19:00 17.607910201SE5SE0
20:00 17.607510203ESE6E0
21:00 17.207310204N15N0
22:00 16.707610213N10NNE0
23:00 17.407310215NNO16NNO0
minuit 15.508010223NNE15NNE0

Graphique du 25-10-2019

 

Serveur OMMA